Time;durP1;ratioP1;P1;durP2;ratioP2;P2;SDS_P1;SDS_P2;PMS_P1;PMS_P2;Temp;Humidity;BMP_temperature;BMP_pressure;BME280_temperature;BME280_humidity;BME280_pressure;Samples;Min_cycle;Max_cycle;Signal;HPM_P1;HPM_P2
2022/12/06 00:01:59;;;;;;;51.15;24.73;;;;;;;9.28;74.11;100293.97;5053882;28;20413;-80
2022/12/06 00:04:24;;;;;;;52.78;26.02;;;;;;;9.75;73.83;100364.91;5053656;28;20029;-79
2022/12/06 00:06:53;;;;;;;55.22;25.45;;;;;;;9.10;73.43;100248.34;5053681;28;20501;-79
2022/12/06 00:09:24;;;;;;;49.38;25.23;;;;;;;9.95;74.25;100408.59;5053921;28;20114;-79
2022/12/06 00:11:50;;;;;;;54.63;25.52;;;;;;;9.61;73.67;100325.88;5054037;28;20120;-79
2022/12/06 00:14:18;;;;;;;55.50;28.27;;;;;;;9.55;73.95;100320.22;5053592;28;20026;-79
2022/12/06 00:16:43;;;;;;;53.13;26.90;;;;;;;9.62;74.14;100322.25;5053557;28;20035;-79
2022/12/06 00:19:12;;;;;;;55.20;24.88;;;;;;;9.64;73.78;100346.66;5035568;28;20025;-79
2022/12/06 00:21:38;;;;;;;50.17;24.85;;;;;;;9.99;73.89;100380.91;5053629;28;20029;-79
2022/12/06 00:24:07;;;;;;;49.65;23.73;;;;;;;9.55;73.91;100300.94;5053413;28;20032;-79
2022/12/06 00:26:41;;;;;;;42.72;21.35;;;;;;;9.33;73.68;100267.97;5036797;28;20025;-80
2022/12/06 00:29:10;;;;;;;47.25;24.92;;;;;;;9.72;73.39;100326.47;5039958;28;20032;-79
2022/12/06 00:31:36;;;;;;;53.88;24.33;;;;;;;9.19;73.74;100239.53;5058547;28;20025;-79
2022/12/06 00:34:01;;;;;;;58.63;26.52;;;;;;;9.98;73.91;100389.81;5053513;28;20021;-80
2022/12/06 00:36:31;;;;;;;45.85;24.13;;;;;;;9.77;74.13;100361.13;5035716;28;20032;-79
2022/12/06 00:39:02;;;;;;;53.22;25.35;;;;;;;9.94;74.05;100370.00;5053522;28;20051;-79
2022/12/06 00:41:28;;;;;;;48.22;24.27;;;;;;;9.04;74.32;100225.25;5052973;28;20494;-79
2022/12/06 00:43:54;;;;;;;47.20;24.27;;;;;;;9.81;74.54;100369.56;5053078;28;20025;-79
2022/12/06 00:46:22;;;;;;;47.90;24.55;;;;;;;9.91;74.95;100372.13;5035167;28;20422;-79
2022/12/06 00:48:49;;;;;;;49.47;25.08;;;;;;;9.07;74.30;100241.59;5052968;28;20060;-79
2022/12/06 00:51:16;;;;;;;46.97;23.98;;;;;;;9.55;74.13;100322.84;5034955;28;20027;-79
2022/12/06 00:53:42;;;;;;;50.17;24.00;;;;;;;9.44;74.54;100296.75;5052721;28;20039;-79
2022/12/06 00:56:07;;;;;;;43.85;23.00;;;;;;;8.38;74.43;100123.75;5053237;28;20029;-79
2022/12/06 00:58:33;;;;;;;42.83;23.90;;;;;;;9.68;74.59;100330.41;5052771;28;20112;-80
2022/12/06 01:01:14;;;;;;;54.17;29.25;;;;;;;9.91;74.76;100367.66;5052803;28;20486;-80
2022/12/06 01:03:40;;;;;;;50.35;26.20;;;;;;;9.86;74.96;100369.94;5052965;28;20092;-80
2022/12/06 01:06:09;;;;;;;47.60;25.55;;;;;;;9.87;75.34;100366.31;5034517;28;20028;-79
2022/12/06 01:08:36;;;;;;;51.70;25.60;;;;;;;8.25;74.82;100097.78;5038746;28;20060;-79
2022/12/06 01:11:02;;;;;;;41.13;21.60;;;;;;;9.06;74.87;100239.94;5052641;28;20029;-79
2022/12/06 01:13:29;;;;;;;45.53;24.08;;;;;;;9.41;75.10;100275.13;5051125;28;20033;-79
2022/12/06 01:15:55;;;;;;;42.47;23.92;;;;;;;9.79;75.11;100342.53;5052395;28;20032;-79
2022/12/06 01:18:21;;;;;;;44.28;23.50;;;;;;;9.19;74.58;100252.72;5052360;28;20482;-80
2022/12/06 01:20:46;;;;;;;37.42;20.17;;;;;;;9.43;74.83;100289.81;5051413;28;20036;-79
2022/12/06 01:23:13;;;;;;;41.10;21.85;;;;;;;9.77;75.16;100355.03;5052689;28;20033;-79
2022/12/06 01:25:38;;;;;;;35.10;20.25;;;;;;;9.83;75.05;100341.22;5050946;28;20047;-79
2022/12/06 01:28:04;;;;;;;37.42;19.88;;;;;;;9.28;75.62;100249.16;5052365;28;20485;-79
2022/12/06 01:30:30;;;;;;;33.28;18.45;;;;;;;9.90;75.21;100344.06;5052180;28;20071;-79
2022/12/06 01:32:55;;;;;;;31.65;19.70;;;;;;;9.40;74.92;100271.66;5052018;28;20533;-79
2022/12/06 01:35:21;;;;;;;38.75;24.02;;;;;;;9.67;75.53;100310.28;5052006;28;20413;-80
2022/12/06 01:37:46;;;;;;;35.50;22.27;;;;;;;9.88;74.90;100357.41;5052001;28;20437;-80
2022/12/06 01:40:12;;;;;;;34.08;20.38;;;;;;;9.23;75.24;100246.16;5052012;28;20062;-81
2022/12/06 01:42:38;;;;;;;32.00;19.20;;;;;;;9.28;74.86;100230.72;5052026;28;20387;-81
2022/12/06 01:45:04;;;;;;;34.83;20.33;;;;;;;9.32;75.31;100233.88;5051908;28;20033;-81
2022/12/06 01:47:36;;;;;;;32.47;20.45;;;;;;;9.85;75.81;100331.34;5051991;28;20409;-81
2022/12/06 01:50:04;;;;;;;;;;;;;;;9.74;76.09;100331.59;5052322;28;20033;-81
2022/12/06 01:52:59;;;;;;;30.05;18.45;;;;;;;9.49;75.67;100267.28;5051630;28;19913;-81
2022/12/06 01:55:27;;;;;;;27.85;17.85;;;;;;;8.96;75.31;100190.94;5052026;28;20505;-81
2022/12/06 01:57:59;;;;;;;30.77;20.45;;;;;;;9.17;75.86;100212.53;5051931;28;20033;-81
2022/12/06 02:00:24;;;;;;;30.88;19.30;;;;;;;9.70;75.59;100314.44;5052283;28;20029;-81
2022/12/06 02:02:50;;;;;;;30.48;19.05;;;;;;;9.43;75.57;100246.81;5052103;28;20036;-81
2022/12/06 02:05:16;;;;;;;30.45;18.63;;;;;;;9.16;75.67;100187.16;5050742;28;20036;-81
2022/12/06 02:07:43;;;;;;;32.25;18.92;;;;;;;9.95;75.62;100318.06;5051914;28;20029;-81
2022/12/06 02:10:09;;;;;;;31.67;19.15;;;;;;;9.84;75.80;100306.78;5051714;28;20516;-81
2022/12/06 02:12:34;;;;;;;28.58;18.50;;;;;;;9.13;75.83;100180.38;5051812;28;20057;-82
2022/12/06 02:14:59;;;;;;;25.05;17.40;;;;;;;9.63;75.98;100266.72;5052076;28;20025;-82
2022/12/06 02:17:33;;;;;;;31.70;18.30;;;;;;;9.92;75.96;100306.00;5051394;28;20417;-82
2022/12/06 02:20:02;;;;;;;28.33;16.48;;;;;;;9.25;76.17;100225.75;5049813;28;20025;-82
2022/12/06 02:23:09;;;;;;;31.00;18.00;;;;;;;9.88;75.77;100305.50;5050179;28;20505;-81
2022/12/06 02:25:47;;;;;;;30.20;18.20;;;;;;;9.84;76.01;100303.31;5033658;28;20040;-80
2022/12/06 02:28:41;;;;;;;28.75;18.30;;;;;;;9.83;75.99;100294.59;5050069;28;20037;-81
2022/12/06 02:31:30;;;;;;;31.90;20.58;;;;;;;8.89;76.22;100154.66;5041046;28;20087;-81
2022/12/06 02:34:33;;;;;;;30.88;17.42;;;;;;;9.83;75.93;100297.22;5023038;28;20102;-81
2022/12/06 02:37:09;;;;;;;31.63;18.40;;;;;;;9.82;75.98;100306.13;5033267;28;20079;-81
2022/12/06 02:39:49;;;;;;;34.03;19.90;;;;;;;9.85;76.26;100297.06;5051186;28;20489;-81
2022/12/06 02:42:58;;;;;;;38.33;21.88;;;;;;;9.82;76.15;100306.13;5051261;28;20032;-82
2022/12/06 02:45:28;;;;;;;35.97;22.17;;;;;;;9.68;76.01;100279.47;5031308;28;20111;-82
2022/12/06 02:47:56;;;;;;;42.20;23.58;;;;;;;9.89;75.91;100301.03;5033535;28;20468;-82
2022/12/06 02:50:29;;;;;;;46.97;23.00;;;;;;;9.93;76.13;100296.28;5033359;28;20127;-82
2022/12/06 02:53:00;;;;;;;47.20;24.88;;;;;;;9.73;75.82;100264.03;5033215;28;20025;-81
2022/12/06 02:55:28;;;;;;;44.53;24.50;;;;;;;9.74;75.69;100284.97;5051320;28;20032;-81
2022/12/06 02:57:55;;;;;;;48.70;24.90;;;;;;;9.83;75.85;100306.94;5051586;28;20032;-82
2022/12/06 03:00:24;;;;;;;44.80;22.35;;;;;;;9.91;75.87;100304.34;5051670;28;20557;-82
2022/12/06 03:02:55;;;;;;;46.08;23.27;;;;;;;9.23;75.81;100194.28;5051715;28;20032;-82
2022/12/06 03:05:32;;;;;;;42.40;23.98;;;;;;;9.79;75.95;100302.97;5033742;28;20383;-81
2022/12/06 03:08:05;;;;;;;41.72;24.30;;;;;;;9.51;75.09;100254.78;5056151;28;20028;-81
2022/12/06 03:10:40;;;;;;;48.83;29.70;;;;;;;9.83;75.05;100304.31;5055189;28;20032;-81
2022/12/06 03:13:11;;;;;;;44.20;27.17;;;;;;;9.79;75.18;100303.78;5050824;28;20497;-80
2022/12/06 03:15:43;;;;;;;53.95;32.88;;;;;;;9.74;74.46;100303.41;5050816;28;20025;-80
2022/12/06 03:18:18;;;;;;;;;;;;;;;9.57;74.77;100306.88;5033356;28;20421;-80
2022/12/06 03:20:55;;;;;;;48.70;29.40;;;;;;;9.62;74.76;100296.72;5050819;28;19909;-81
2022/12/06 03:23:25;;;;;;;47.22;27.20;;;;;;;8.97;74.92;100222.41;5050704;28;20033;-80
2022/12/06 03:25:53;;;;;;;49.08;27.92;;;;;;;9.22;74.48;100232.16;5050999;28;20104;-80
2022/12/06 03:28:20;;;;;;;51.70;29.00;;;;;;;9.14;74.90;100239.16;5050700;28;20032;-81
2022/12/06 03:30:49;;;;;;;52.13;32.60;;;;;;;9.28;74.74;100245.72;5035350;28;20025;-80
2022/12/06 03:33:18;;;;;;;49.80;29.55;;;;;;;9.29;74.59;100250.81;5053042;28;20025;-80
2022/12/06 03:35:45;;;;;;;58.78;31.45;;;;;;;9.59;74.53;100301.47;5054477;28;20028;-80
2022/12/06 03:38:17;;;;;;;50.10;28.75;;;;;;;9.17;75.13;100246.78;5054504;28;20074;-80
2022/12/06 03:40:46;;;;;;;48.30;28.83;;;;;;;9.25;74.96;100257.38;5054792;28;20028;-81
2022/12/06 03:43:12;;;;;;;50.15;29.90;;;;;;;9.60;74.57;100306.59;5054384;28;20099;-81
2022/12/06 03:45:48;;;;;;;48.60;28.55;;;;;;;8.91;74.82;100218.53;5054486;28;20037;-81
2022/12/06 03:48:21;;;;;;;45.28;27.90;;;;;;;9.04;74.47;100215.53;5054327;28;20490;-81
2022/12/06 03:50:56;;;;;;;49.03;27.63;;;;;;;9.49;74.97;100283.94;5054545;28;20021;-81
2022/12/06 03:53:22;;;;;;;48.55;28.13;;;;;;;8.97;74.81;100213.66;5054130;28;20075;-81
2022/12/06 03:55:47;;;;;;;53.85;29.23;;;;;;;8.78;75.11;100199.66;5052699;28;20502;-81
2022/12/06 03:58:13;;;;;;;51.53;29.77;;;;;;;8.89;75.09;100188.88;5036040;28;20120;-81
2022/12/06 04:00:38;;;;;;;55.47;31.77;;;;;;;8.77;75.08;100163.75;5053978;28;20033;-81
2022/12/06 04:03:04;;;;;;;50.45;27.50;;;;;;;9.19;74.94;100239.53;5053957;28;20025;-81
2022/12/06 04:05:29;;;;;;;49.95;29.30;;;;;;;8.64;75.28;100154.59;5053790;28;20032;-81
2022/12/06 04:07:54;;;;;;;61.70;32.95;;;;;;;8.84;75.05;100214.00;5053740;28;20025;-80
2022/12/06 04:10:21;;;;;;;58.10;30.77;;;;;;;8.77;74.80;100182.19;5053740;28;20036;-81
2022/12/06 04:12:59;;;;;;;58.40;33.35;;;;;;;8.81;74.91;100178.28;5035810;28;20028;-81
2022/12/06 04:15:27;;;;;;;56.70;33.10;;;;;;;8.84;75.04;100183.25;5036534;28;20516;-81
2022/12/06 04:18:12;;;;;;;59.88;34.17;;;;;;;8.70;75.08;100154.81;5054295;28;20025;-81
2022/12/06 04:23:44;;;;;;;58.88;33.17;;;;;;;9.06;75.29;100221.50;5054083;28;20035;-80
2022/12/06 04:26:12;;;;;;;60.00;31.98;;;;;;;9.51;75.20;100283.78;5053878;28;20029;-81
2022/12/06 04:39:34;;;;;;;55.25;31.52;;;;;;;9.30;75.05;100270.09;5054463;28;20091;-81
2022/12/06 04:44:44;;;;;;;57.60;32.92;;;;;;;8.91;75.15;100220.34;5054027;28;20040;-80
2022/12/06 04:47:09;;;;;;;54.83;30.15;;;;;;;8.99;74.70;100222.25;5035490;28;20029;-80
2022/12/06 04:49:36;;;;;;;56.20;30.92;;;;;;;9.02;75.28;100237.75;5051989;28;20482;-81
2022/12/06 04:52:03;;;;;;;56.00;29.27;;;;;;;8.70;75.25;100173.25;5052973;28;20021;-81
2022/12/06 04:54:29;;;;;;;51.53;28.33;;;;;;;8.51;75.01;100133.91;5035200;28;20033;-80
2022/12/06 04:56:56;;;;;;;58.20;29.67;;;;;;;9.15;75.38;100267.16;5034711;28;20017;-80
2022/12/06 04:59:21;;;;;;;57.30;31.00;;;;;;;9.52;75.18;100294.16;5052544;28;20128;-80
2022/12/06 05:01:47;;;;;;;58.20;29.23;;;;;;;9.27;75.29;100270.41;5052652;28;20517;-80
2022/12/06 05:04:12;;;;;;;53.50;28.45;;;;;;;9.52;74.85;100302.06;5052444;28;20016;-80
2022/12/06 05:06:37;;;;;;;56.40;29.95;;;;;;;8.87;75.37;100197.91;5051050;28;20025;-80
2022/12/06 05:09:03;;;;;;;57.17;30.30;;;;;;;9.07;75.27;100235.50;5052381;28;20048;-80
2022/12/06 05:11:29;;;;;;;58.67;31.90;;;;;;;8.73;75.10;100209.81;5052261;28;20482;-80
2022/12/06 05:13:54;;;;;;;57.47;29.70;;;;;;;9.13;75.29;100245.41;5052420;28;20532;-80
2022/12/06 05:16:20;;;;;;;57.20;29.33;;;;;;;9.04;75.21;100231.34;5052374;28;20025;-80
2022/12/06 05:18:45;;;;;;;54.17;31.15;;;;;;;8.98;75.37;100268.81;5052423;28;20482;-80
2022/12/06 05:21:17;;;;;;;63.20;34.20;;;;;;;8.60;75.11;100159.34;5052442;28;20029;-80
2022/12/06 05:23:43;;;;;;;62.15;31.85;;;;;;;9.46;75.00;100302.69;5052499;28;20031;-80
2022/12/06 05:26:17;;;;;;;57.83;29.98;;;;;;;9.48;75.31;100300.72;5052232;28;20061;-80
2022/12/06 05:28:44;;;;;;;64.78;32.72;;;;;;;9.35;75.33;100276.56;5034202;28;20051;-80
2022/12/06 05:31:10;;;;;;;64.90;34.13;;;;;;;9.12;75.20;100263.03;5052100;28;20037;-80
2022/12/06 05:33:36;;;;;;;65.43;33.35;;;;;;;9.17;75.34;100257.31;5052247;28;20028;-80
2022/12/06 05:36:11;;;;;;;59.53;32.38;;;;;;;9.37;75.12;100293.06;5052102;28;20047;-80
2022/12/06 05:38:36;;;;;;;69.85;33.15;;;;;;;9.11;75.52;100250.00;5052188;28;20111;-80
2022/12/06 05:41:03;;;;;;;63.47;32.00;;;;;;;9.07;75.22;100257.38;5051904;28;20035;-80
2022/12/06 05:43:29;;;;;;;55.88;30.52;;;;;;;9.40;75.42;100297.19;5051971;28;20048;-80
2022/12/06 05:45:55;;;;;;;62.85;32.40;;;;;;;8.72;75.45;100184.44;5051754;28;20051;-80
2022/12/06 05:48:21;;;;;;;67.03;32.60;;;;;;;8.77;75.28;100200.63;5051742;28;20085;-79
2022/12/06 05:50:47;;;;;;;71.72;32.75;;;;;;;9.37;75.46;100298.31;5033792;28;20116;-80
2022/12/06 05:53:13;;;;;;;67.93;34.17;;;;;;;9.28;75.42;100270.25;5032788;28;20114;-80
2022/12/06 05:55:39;;;;;;;68.43;36.55;;;;;;;9.11;75.54;100244.75;5052011;28;20523;-80
2022/12/06 05:58:04;;;;;;;67.75;36.78;;;;;;;8.88;75.45;100213.56;5050753;28;20417;-81
2022/12/06 06:00:30;;;;;;;70.32;35.97;;;;;;;8.73;75.21;100185.28;5058025;28;20035;-81
2022/12/06 06:02:55;;;;;;;68.72;33.08;;;;;;;9.27;75.56;100294.94;5071439;28;20027;-81
2022/12/06 06:05:21;;;;;;;72.95;36.03;;;;;;;8.99;75.79;100246.78;5071807;28;20512;-81
2022/12/06 06:07:46;;;;;;;77.35;38.08;;;;;;;9.11;76.16;100264.00;5071579;28;20024;-81
2022/12/06 06:10:13;;;;;;;81.97;38.65;;;;;;;9.33;76.13;100296.97;5112943;28;20022;-81
2022/12/06 06:12:38;;;;;;;88.63;39.72;;;;;;;8.75;76.30;100210.47;5106699;28;20042;-80
2022/12/06 06:15:06;;;;;;;101.57;43.47;;;;;;;9.09;76.11;100273.88;5090448;28;20028;-81
2022/12/06 06:17:33;;;;;;;81.45;39.78;;;;;;;8.66;76.45;100206.13;5067992;28;20036;-80
2022/12/06 06:20:01;;;;;;;91.43;40.90;;;;;;;9.04;76.32;100257.69;5071803;28;20025;-80
2022/12/06 06:22:27;;;;;;;91.38;39.53;;;;;;;8.68;76.23;100198.06;5071694;28;20059;-81
2022/12/06 06:24:52;;;;;;;80.65;38.33;;;;;;;9.05;76.19;100246.19;5053800;28;20035;-80
2022/12/06 06:27:18;;;;;;;91.35;41.92;;;;;;;8.46;75.98;100155.41;5076594;28;20107;-81
2022/12/06 06:29:43;;;;;;;98.50;43.05;;;;;;;8.78;76.27;100202.28;5079873;28;20425;-80
2022/12/06 06:32:08;;;;;;;122.47;44.65;;;;;;;8.78;76.36;100198.81;5075265;28;20036;-81
2022/12/06 06:34:34;;;;;;;112.38;42.90;;;;;;;9.17;76.42;100266.03;5078092;28;20032;-80
2022/12/06 06:36:59;;;;;;;92.22;40.80;;;;;;;9.14;76.41;100254.97;5054367;28;20429;-80
2022/12/06 06:39:25;;;;;;;98.18;44.45;;;;;;;9.01;76.52;100236.91;5055100;28;20031;-80
2022/12/06 06:41:50;;;;;;;95.85;41.92;;;;;;;8.93;76.09;100209.69;5053357;28;20032;-80
2022/12/06 06:44:15;;;;;;;95.68;41.08;;;;;;;8.37;76.67;100126.53;5062799;28;20021;-80
2022/12/06 06:46:41;;;;;;;100.03;43.88;;;;;;;8.44;76.23;100140.75;5066414;28;20111;-80
2022/12/06 06:49:06;;;;;;;93.32;39.95;;;;;;;8.69;76.30;100171.59;5071273;28;20032;-79
2022/12/06 06:51:32;;;;;;;112.45;39.17;;;;;;;8.79;76.41;100205.75;5078405;28;20039;-79
2022/12/06 06:53:58;;;;;;;113.95;42.10;;;;;;;9.39;76.68;100292.91;5087229;28;20024;-80
2022/12/06 06:56:24;;;;;;;102.93;43.55;;;;;;;9.30;76.86;100299.91;5077456;28;20040;-80
2022/12/06 06:58:50;;;;;;;118.15;45.13;;;;;;;8.60;76.74;100175.13;5075997;28;20094;-79
2022/12/06 07:01:18;;;;;;;120.75;42.85;;;;;;;7.83;76.62;100039.66;5075075;28;20134;-79
2022/12/06 07:03:44;;;;;;;84.57;38.53;;;;;;;8.79;76.79;100206.56;5077950;28;20086;-79
2022/12/06 07:06:10;;;;;;;94.25;40.22;;;;;;;9.37;76.37;100293.06;5076021;28;20048;-80
2022/12/06 07:08:37;;;;;;;88.18;36.28;;;;;;;9.40;76.32;100303.28;5074539;28;20052;-80
2022/12/06 07:11:03;;;;;;;76.85;34.50;;;;;;;9.38;76.17;100305.25;5057630;28;20032;-79
2022/12/06 07:13:29;;;;;;;96.75;37.83;;;;;;;9.16;75.92;100260.91;5073303;28;20417;-79
2022/12/06 07:15:55;;;;;;;102.07;32.80;;;;;;;9.33;76.23;100299.59;5071730;28;20412;-80
2022/12/06 07:18:20;;;;;;;118.70;35.47;;;;;;;8.82;76.85;100237.88;5056825;28;20029;-80
2022/12/06 07:20:47;;;;;;;117.65;37.25;;;;;;;8.19;77.06;100137.00;5074220;28;20464;-81
2022/12/06 07:23:14;;;;;;;91.75;36.22;;;;;;;9.09;77.41;100271.25;5056430;28;20112;-81
2022/12/06 07:25:40;;;;;;;96.95;34.78;;;;;;;8.37;77.04;100153.69;5065287;28;20059;-80
2022/12/06 07:28:05;;;;;;;78.07;35.03;;;;;;;8.79;77.14;100251.34;5073107;28;20035;-80
2022/12/06 07:30:31;;;;;;;81.93;33.30;;;;;;;9.11;77.10;100284.25;5064239;28;20036;-80
2022/12/06 07:32:58;;;;;;;90.47;31.45;;;;;;;9.21;76.91;100293.75;5074070;28;20025;-79
2022/12/06 07:35:23;;;;;;;60.70;30.17;;;;;;;8.93;76.97;100233.38;5072724;28;20517;-80
2022/12/06 07:37:49;;;;;;;70.55;33.90;;;;;;;8.99;76.84;100244.16;5073527;28;20029;-81
2022/12/06 07:40:15;;;;;;;68.75;32.95;;;;;;;9.32;76.53;100297.13;5072831;28;20032;-80
2022/12/06 07:45:25;;;;;;;75.68;34.30;;;;;;;9.13;76.96;100262.06;5073088;28;20247;-80
2022/12/06 07:47:50;;;;;;;69.50;33.80;;;;;;;8.48;76.51;100160.53;5073604;28;20024;-80
2022/12/06 07:50:21;;;;;;;66.00;34.28;;;;;;;9.37;76.71;100294.88;5073893;28;20503;-79
2022/12/06 07:52:49;;;;;;;53.95;29.13;;;;;;;8.79;76.50;100197.84;5072980;28;20024;-80
2022/12/06 07:55:16;;;;;;;50.70;28.45;;;;;;;9.30;75.95;100264.81;5073530;28;20523;-79
2022/12/06 07:57:43;;;;;;;52.03;27.15;;;;;;;8.98;75.80;100213.53;5074012;28;20028;-80
2022/12/06 08:00:11;;;;;;;56.00;29.98;;;;;;;9.49;75.94;100291.00;5056584;28;20404;-80
2022/12/06 08:02:36;;;;;;;51.65;28.02;;;;;;;8.88;75.87;100196.94;5055648;28;20508;-80
2022/12/06 08:05:02;;;;;;;52.70;27.45;;;;;;;9.53;75.45;100302.91;5068695;28;20032;-80
2022/12/06 08:07:27;;;;;;;47.17;24.58;;;;;;;8.93;75.05;100186.81;5052932;28;20020;-79
2022/12/06 08:09:53;;;;;;;42.25;23.08;;;;;;;9.30;74.64;100257.75;5071441;28;20052;-82
2022/12/06 08:12:21;;;;;;;41.92;24.83;;;;;;;9.40;75.19;100269.03;5055063;28;20033;-80
2022/12/06 08:14:47;;;;;;;39.08;22.45;;;;;;;9.04;74.84;100209.44;5063882;28;20036;-80
2022/12/06 08:17:13;;;;;;;47.67;27.48;;;;;;;8.85;75.12;100173.53;5070849;28;20021;-81
2022/12/06 08:19:39;;;;;;;52.20;29.33;;;;;;;9.59;75.07;100288.28;5071194;28;20559;-79
2022/12/06 08:22:04;;;;;;;47.83;27.23;;;;;;;8.90;74.74;100184.44;5072502;28;20417;-80
2022/12/06 08:24:30;;;;;;;44.45;25.90;;;;;;;9.14;75.06;100241.81;5055913;28;20040;-80
2022/12/06 08:26:55;;;;;;;45.75;26.83;;;;;;;8.12;75.33;100070.16;5073633;28;20024;-80
2022/12/06 08:29:21;;;;;;;52.47;31.90;;;;;;;9.55;75.33;100282.47;5071770;28;20078;-80
2022/12/06 08:31:47;;;;;;;43.63;23.58;;;;;;;9.02;74.66;100198.25;5073716;28;20501;-81
2022/12/06 08:34:14;;;;;;;48.38;26.13;;;;;;;9.55;75.32;100291.22;5071797;28;20043;-80
2022/12/06 08:36:40;;;;;;;41.72;26.10;;;;;;;9.08;75.30;100221.34;5073422;28;20028;-80
2022/12/06 08:39:07;;;;;;;42.40;25.48;;;;;;;8.52;75.19;100140.84;5072799;28;20028;-80
2022/12/06 08:44:18;;;;;;;38.97;22.40;;;;;;;9.67;74.44;100269.91;5069279;28;20623;-80
2022/12/06 08:46:44;;;;;;;38.90;23.50;;;;;;;9.73;74.62;100269.28;5054007;28;20059;-81
2022/12/06 08:49:11;;;;;;;41.28;25.05;;;;;;;9.78;74.40;100264.38;5054735;28;20025;-79
2022/12/06 08:51:38;;;;;;;44.75;24.08;;;;;;;9.49;74.02;100219.84;5068473;28;20039;-80
2022/12/06 08:54:04;;;;;;;47.90;26.35;;;;;;;9.71;74.07;100242.25;5054718;28;20119;-80
2022/12/06 08:56:30;;;;;;;37.33;24.45;;;;;;;9.31;73.86;100182.97;5054436;28;20052;-80
2022/12/06 08:58:56;;;;;;;33.67;19.65;;;;;;;9.01;73.71;100107.03;5071937;28;20089;-81
2022/12/06 09:01:25;;;;;;;32.60;19.85;;;;;;;9.89;73.39;100245.66;5070581;28;20020;-80
2022/12/06 09:03:50;;;;;;;39.58;23.23;;;;;;;9.27;72.89;100131.56;5072037;28;20104;-81
2022/12/06 09:06:17;;;;;;;36.47;21.95;;;;;;;9.54;73.36;100173.56;5072207;28;20062;-80
2022/12/06 09:08:43;;;;;;;44.33;27.60;;;;;;;9.42;73.57;100130.00;5080834;28;20047;-80
2022/12/06 09:11:09;;;;;;;39.65;26.00;;;;;;;9.43;72.87;100131.66;5082585;28;20047;-81
2022/12/06 09:13:36;;;;;;;49.33;28.63;;;;;;;10.06;72.99;100226.28;5070632;28;20493;-80
2022/12/06 09:16:11;;;;;;;45.03;28.05;;;;;;;9.62;73.22;100148.25;5069366;28;20527;-79
2022/12/06 09:18:36;;;;;;;47.03;28.02;;;;;;;10.05;72.77;100229.91;5066131;28;20052;-80
2022/12/06 09:21:14;;;;;;;51.67;30.52;;;;;;;10.06;72.82;100213.09;5060778;28;20064;-80
2022/12/06 09:23:40;;;;;;;48.10;28.13;;;;;;;10.06;72.96;100210.47;5045478;28;20115;-80
2022/12/06 09:26:06;;;;;;;49.22;27.60;;;;;;;10.05;73.14;100205.34;5071796;28;20161;-80
2022/12/06 09:28:34;;;;;;;54.25;31.40;;;;;;;9.22;72.86;100083.78;5071598;28;20021;-80
2022/12/06 09:31:01;;;;;;;49.05;29.27;;;;;;;9.61;73.08;100154.50;5056792;28;20029;-80
2022/12/06 09:33:27;;;;;;;45.33;28.08;;;;;;;9.74;73.08;100165.47;5068781;28;20027;-81
2022/12/06 09:35:52;;;;;;;52.30;30.50;;;;;;;9.29;72.99;100087.44;5052447;28;20037;-80
2022/12/06 09:38:23;;;;;;;49.33;30.23;;;;;;;8.96;72.69;100049.56;5071504;28;20401;-80
2022/12/06 09:41:13;;;;;;;49.85;27.90;;;;;;;9.93;73.43;100188.97;5072889;28;20642;-80
2022/12/06 09:44:06;;;;;;;45.38;26.55;;;;;;;9.95;73.44;100187.00;5063285;28;20034;-80
2022/12/06 09:46:41;;;;;;;44.50;27.35;;;;;;;9.46;72.62;100120.81;5060632;28;20032;-80
2022/12/06 09:49:38;;;;;;;42.80;26.73;;;;;;;9.97;73.00;100171.00;5090559;28;20025;-80
2022/12/06 09:52:16;;;;;;;47.15;27.60;;;;;;;9.29;73.03;100074.28;5069425;28;20118;-79
2022/12/06 09:55:13;;;;;;;58.15;36.53;;;;;;;9.92;72.46;100179.41;5071625;28;20070;-80
2022/12/06 09:57:50;;;;;;;51.85;32.05;;;;;;;9.05;72.44;100030.19;5072835;28;20036;-79
2022/12/06 10:00:20;;;;;;;46.83;28.50;;;;;;;9.67;72.57;100109.91;5053551;28;20040;-80
2022/12/06 10:03:13;;;;;;;47.42;28.15;;;;;;;10.02;72.73;100174.00;5068696;28;20024;-80
2022/12/06 10:06:01;;;;;;;48.85;29.83;;;;;;;10.05;72.29;100166.59;5048947;28;20032;-79
2022/12/06 10:08:45;;;;;;;46.45;27.35;;;;;;;10.08;72.21;100160.16;5063092;28;20060;-80
2022/12/06 10:11:22;;;;;;;47.22;28.05;;;;;;;10.11;72.65;100151.94;5068486;28;20060;-80
2022/12/06 10:14:06;;;;;;;50.05;29.02;;;;;;;9.98;72.56;100118.09;5052439;28;20032;-80
2022/12/06 10:16:35;;;;;;;48.08;28.60;;;;;;;10.24;72.74;100148.88;5069746;28;20032;-80
2022/12/06 10:19:07;;;;;;;42.25;25.95;;;;;;;10.34;71.83;100141.63;5056602;28;20027;-80
2022/12/06 10:21:53;;;;;;;42.80;26.75;;;;;;;10.36;72.45;100134.38;5067863;28;20106;-80
2022/12/06 10:24:43;;;;;;;42.67;26.40;;;;;;;10.41;71.78;100138.22;5062625;28;20544;-79
2022/12/06 10:27:25;;;;;;;43.05;26.60;;;;;;;10.05;71.79;100071.63;5090089;28;20106;-79
2022/12/06 10:30:01;;;;;;;46.25;29.08;;;;;;;10.09;71.58;100074.75;5074158;28;20060;-79
2022/12/06 10:32:50;;;;;;;49.60;31.88;;;;;;;10.45;71.13;100128.16;5055452;28;20039;-79
2022/12/06 10:35:19;;;;;;;52.30;31.45;;;;;;;10.44;71.41;100123.88;5059262;28;20062;-80
2022/12/06 10:38:22;;;;;;;51.38;30.17;;;;;;;10.42;71.44;100118.75;5065016;28;20028;-79
2022/12/06 10:40:59;;;;;;;39.75;23.25;;;;;;;10.40;71.88;100120.72;5054820;28;20054;-79
2022/12/06 10:43:48;;;;;;;44.30;26.75;;;;;;;10.02;71.52;100052.66;5062123;28;20615;-79
2022/12/06 10:47:04;;;;;;;40.67;23.65;;;;;;;10.35;71.61;100106.34;5057415;28;20044;-79
2022/12/06 10:49:41;;;;;;;39.50;26.15;;;;;;;10.41;71.93;100109.19;5071269;28;20044;-79
2022/12/06 10:52:40;;;;;;;34.63;23.77;;;;;;;10.51;70.85;100106.38;5073890;28;20055;-79
2022/12/06 10:55:39;;;;;;;39.97;24.02;;;;;;;10.19;71.46;100043.78;5053930;28;20584;-79
2022/12/06 10:58:18;;;;;;;37.58;22.25;;;;;;;10.59;70.78;100087.09;5070221;28;20025;-79
2022/12/06 11:00:53;;;;;;;30.85;22.05;;;;;;;10.46;70.25;100042.69;5072698;28;20674;-79
2022/12/06 11:03:27;;;;;;;38.85;25.65;;;;;;;10.33;70.06;100018.56;5073764;28;20102;-79
2022/12/06 11:06:24;;;;;;;34.65;23.25;;;;;;;10.88;69.59;100083.94;5075576;28;20038;-79
2022/12/06 11:08:53;;;;;;;35.90;22.45;;;;;;;10.16;69.07;99955.22;5063053;28;20074;-79
2022/12/06 11:11:35;;;;;;;32.03;21.13;;;;;;;10.54;69.50;100018.09;5059960;28;20031;-79
2022/12/06 11:14:19;;;;;;;32.33;22.02;;;;;;;10.55;69.53;99999.47;5075708;28;20034;-79
2022/12/06 11:16:54;;;;;;;33.40;22.13;;;;;;;10.95;69.33;100055.84;5059436;28;20029;-79
2022/12/06 11:19:37;;;;;;;29.50;19.27;;;;;;;10.54;68.69;99992.53;5053152;28;20038;-78
2022/12/06 11:22:33;;;;;;;27.95;20.40;;;;;;;10.91;69.55;100046.63;5073950;28;20035;-78
2022/12/06 11:25:14;;;;;;;33.85;21.08;;;;;;;10.92;69.30;100035.06;5074678;28;20021;-79
2022/12/06 11:27:48;;;;;;;36.45;23.65;;;;;;;10.93;68.84;100028.78;5059888;28;20420;-79
2022/12/06 11:30:16;;;;;;;37.00;24.25;;;;;;;10.83;68.65;100010.47;5077901;28;20050;-78
2022/12/06 11:32:44;;;;;;;33.45;21.67;;;;;;;10.81;68.73;100013.28;5076965;28;20024;-80
2022/12/06 11:35:20;;;;;;;32.42;21.55;;;;;;;10.13;69.01;99878.19;5070690;28;20489;-80
2022/12/06 11:37:46;;;;;;;27.90;19.50;;;;;;;10.45;68.74;99925.72;5058080;28;20029;-80
2022/12/06 11:40:27;;;;;;;33.45;21.10;;;;;;;10.61;68.67;99948.63;5061787;28;20040;-80
2022/12/06 11:42:53;;;;;;;35.67;23.40;;;;;;;11.09;68.25;100028.75;5070288;28;20112;-80
2022/12/06 11:45:29;;;;;;;33.92;22.98;;;;;;;11.11;67.94;100013.53;5077784;28;20032;-81
2022/12/06 11:47:55;;;;;;;34.50;23.75;;;;;;;11.14;68.25;100016.66;5074649;28;20032;-80
2022/12/06 11:50:23;;;;;;;36.92;24.10;;;;;;;11.20;68.18;100006.44;5063275;28;20105;-80
2022/12/06 11:52:51;;;;;;;39.50;25.20;;;;;;;11.25;67.95;100001.47;5072190;28;20467;-80
2022/12/06 11:55:24;;;;;;;38.42;24.92;;;;;;;10.54;67.54;99886.91;5052953;28;20032;-80